Viola, Delaware
Current Conditions -  °F | °C
As of 8:58 AM on Monday 24 Nov 2014 (Local Time) from KDOV Reporting Station
Scattered Clouds Scattered Clouds  
Wind Chill: 68°   Ceiling: Unl
Heat Index: 68°   Visibility: 10mi
Dew Point: 66°   Wind: 22mph
Humidity: 94%   Direction: 190°S
Pressure: 29.69"   Gusts: 28mph
Location:  39.04°N, 75.57°W
Report Text: KDOV 241358Z AUTO 19019G24KT 10SM SCT018 20/19 A2969 RMK AO2 PK WND 20027/46 SLP057 T01990189 20027
Loading
Personal Weather Stations






























Interactive Weather Map New forecast layout! Learn more

10-Day Weather Forecast

Advertisements
Track Severe Weather on mobile